Cullowhee, NC

3:21 PM EST on January 31, 2015 (GMT -0500)
Franklin | Change Station
CLOSE
Current Station
Airport
Location: Franklin,
Elevation: 2021 ft
Nearby Weather Stations

Elev 2021 ft 35.22 °N, 83.42 °W | Updated 26 minutes ago

Clear
Clear
48 °F
Feels Like 48 °F
N
0
Wind Variable Wind from North
Gusts 7 mph

Today
High -- | Low -- °F
--% Chance of Precip.
Yesterday
High -- | Low -- °F
Precip. -- in
7:32 AM 5:59 PM
Waxing Gibbous, 91% visible
Pressure 30.28 in
Visibility 10.0 miles
Clouds
Dew Point 6 °F
Humidity 18%
Rainfall 0.00 in
Snow Depth Not available.
UV Not available.
Pollen 1.30 out of 12
Air Quality Not available.
Flu Activity Not available.
METAR K1A5 311955Z AUTO 00000KT 10SM 09/M14 A3028 RMK AO2 T00901142

More Conditions Fewer Conditions

Pressure 30.28 in
Visibility 10.0 miles
Clouds
Dew Point 6 °F
Humidity 18%
Rainfall 0.00 in
Snow Depth Not available.
UV Not available.
Pollen 1.30 out of 12
Air Quality Not available.
Flu Activity Not available.
METAR K1A5 311955Z AUTO 00000KT 10SM 09/M14 A3028 RMK AO2 T00901142

More Conditions Fewer Conditions

10-Day Weather Forecast

Almanac

Astronomy

Jan. 31, 2015 Rise Set
Actual Time
Civil Twilight
Nautical Twilight
Astronomical Twilight
Moon
Length of Visible Light
Length of Day
Tomorrow will be .
, % of the Moon is Illuminated

Today's Extremes

State Highs State Lows

Community

WunderPhotos

Upload Photos

1,792,183 photos uploaded!

WunderBlogs® & News

Nearby

Air Quality

  Air Quality AQ Index Pollutant
Not available.

Snow Depth

Station Depth Elevation

Earthquake Activity

City Distance Mag. Time & Date
Minimum magnitude displayed is 2.5.

Coastal Water Temperatures

Place Temperature

Nearby Weather Stations